createdAt,value
2018-10-03T00:01:51.205Z,94.60
2018-10-03T00:04:19.323Z,94.60
2018-10-03T00:06:47.789Z,95.00
2018-10-03T00:09:15.914Z,95.20
2018-10-03T00:11:44.292Z,95.00
2018-10-03T00:14:12.396Z,95.10
2018-10-03T00:16:40.532Z,95.30
2018-10-03T00:19:08.648Z,95.40
2018-10-03T00:21:36.784Z,95.20
2018-10-03T00:24:04.925Z,95.10
2018-10-03T00:26:33.154Z,95.00
2018-10-03T00:29:01.540Z,95.10
2018-10-03T00:31:29.656Z,95.20
2018-10-03T00:33:57.759Z,95.20
2018-10-03T00:36:25.912Z,95.00
2018-10-03T00:38:54.043Z,95.20
2018-10-03T00:41:22.224Z,95.70
2018-10-03T00:43:50.342Z,95.50
2018-10-03T00:46:18.480Z,95.20
2018-10-03T00:48:46.597Z,94.90
2018-10-03T00:51:15.197Z,94.80
2018-10-03T00:53:43.320Z,94.70
2018-10-03T00:56:12.116Z,94.50
2018-10-03T00:58:40.244Z,94.50
2018-10-03T01:01:08.372Z,94.50
2018-10-03T01:03:36.538Z,94.90
2018-10-03T01:06:04.659Z,94.70
2018-10-03T01:08:33.071Z,94.60
2018-10-03T01:11:01.236Z,94.80
2018-10-03T01:13:29.390Z,94.90
2018-10-03T01:15:57.546Z,95.10
2018-10-03T01:18:25.677Z,95.10
2018-10-03T01:20:53.835Z,95.20
2018-10-03T01:23:22.065Z,95.10
2018-10-03T01:25:50.623Z,95.00
2018-10-03T01:28:19.184Z,94.90
2018-10-03T01:30:47.303Z,94.90
2018-10-03T01:33:15.486Z,95.30
2018-10-03T01:35:43.859Z,95.20
2018-10-03T01:38:12.464Z,95.20
2018-10-03T01:40:40.689Z,95.40
2018-10-03T01:43:08.812Z,95.50
2018-10-03T01:45:37.299Z,95.80
2018-10-03T01:48:05.428Z,96.90
2018-10-03T01:50:33.881Z,96.50
2018-10-03T01:53:02.024Z,96.30
2018-10-03T01:55:30.163Z,96.10
2018-10-03T01:57:59.022Z,96.20
2018-10-03T02:00:27.161Z,96.20
2018-10-03T02:02:55.368Z,96.10
2018-10-03T02:05:23.503Z,96.50
2018-10-03T02:07:51.660Z,96.10
2018-10-03T02:10:19.787Z,96.50
2018-10-03T02:12:47.916Z,96.50
2018-10-03T02:15:16.038Z,96.40
2018-10-03T02:17:44.484Z,96.70
2018-10-03T02:20:12.600Z,96.80
2018-10-03T02:22:41.181Z,96.80
2018-10-03T02:25:09.312Z,96.90
2018-10-03T02:27:37.575Z,97.00
2018-10-03T02:30:06.256Z,96.90
2018-10-03T02:32:34.464Z,96.80
2018-10-03T02:35:02.612Z,96.70
2018-10-03T02:37:30.810Z,97.10
2018-10-03T02:39:58.961Z,97.00
2018-10-03T02:42:27.089Z,96.90
2018-10-03T02:44:55.221Z,97.00
2018-10-03T02:47:23.664Z,97.40
2018-10-03T02:49:51.798Z,97.40
2018-10-03T02:52:20.028Z,97.20
2018-10-03T02:54:48.146Z,97.40
2018-10-03T02:57:16.280Z,97.60
2018-10-03T02:59:44.397Z,97.40
2018-10-03T03:02:12.518Z,97.30
2018-10-03T03:04:40.659Z,97.00
2018-10-03T03:07:08.796Z,97.70
2018-10-03T03:09:36.936Z,97.30
2018-10-03T03:12:05.095Z,97.50
2018-10-03T03:14:33.231Z,97.30
2018-10-03T03:17:01.385Z,97.20
2018-10-03T03:19:29.516Z,97.00
2018-10-03T03:21:57.641Z,96.70
2018-10-03T03:24:26.075Z,96.70
2018-10-03T03:26:54.241Z,96.70
2018-10-03T03:29:22.365Z,96.80
2018-10-03T03:31:50.472Z,97.20
2018-10-03T03:34:18.981Z,97.00
2018-10-03T03:36:47.204Z,96.90
2018-10-03T03:39:15.404Z,96.60
2018-10-03T03:41:43.521Z,96.80
2018-10-03T03:44:11.652Z,96.80
2018-10-03T03:46:40.256Z,96.70
2018-10-03T03:49:08.379Z,96.90
2018-10-03T03:51:36.909Z,97.00
2018-10-03T03:54:05.413Z,97.00
2018-10-03T03:56:33.567Z,97.00
2018-10-03T03:59:01.702Z,98.00
2018-10-03T04:01:29.834Z,97.70
2018-10-03T04:03:57.967Z,97.60
2018-10-03T04:06:26.096Z,97.30
2018-10-03T04:08:54.384Z,97.20
2018-10-03T04:11:22.516Z,96.80
2018-10-03T04:13:50.639Z,97.50
2018-10-03T04:16:19.117Z,97.40
2018-10-03T04:18:47.237Z,97.70
2018-10-03T04:21:15.372Z,97.30
2018-10-03T04:23:43.520Z,97.80
2018-10-03T04:26:12.001Z,97.50
2018-10-03T04:28:40.129Z,98.10
2018-10-03T04:31:08.265Z,98.10
2018-10-03T04:33:36.426Z,98.20
2018-10-03T04:36:04.543Z,98.20
2018-10-03T04:38:32.672Z,98.50
2018-10-03T04:41:01.207Z,98.40
2018-10-03T04:43:29.336Z,97.90
2018-10-03T04:45:57.479Z,98.00
2018-10-03T04:48:25.784Z,98.10
2018-10-03T04:50:53.903Z,98.50
2018-10-03T04:53:22.036Z,98.30
2018-10-03T04:55:50.167Z,98.60
2018-10-03T04:58:18.379Z,98.30
2018-10-03T05:00:46.500Z,98.10
2018-10-03T05:03:14.640Z,98.10
2018-10-03T05:05:42.798Z,98.10
2018-10-03T05:08:11.600Z,98.10
2018-10-03T05:10:39.832Z,97.70
2018-10-03T05:13:08.208Z,97.50
2018-10-03T05:15:36.443Z,98.20
2018-10-03T05:18:04.629Z,97.90
2018-10-03T05:20:33.341Z,97.80
2018-10-03T05:23:01.790Z,97.70
2018-10-03T05:25:29.919Z,97.60
2018-10-03T05:27:58.150Z,97.70
2018-10-03T05:30:26.683Z,97.90
2018-10-03T05:32:54.879Z,97.90
2018-10-03T05:35:23.013Z,97.90
2018-10-03T05:37:51.159Z,97.60
2018-10-03T05:40:19.420Z,97.80
2018-10-03T05:42:47.576Z,97.70
2018-10-03T05:45:16.052Z,97.60
2018-10-03T05:47:44.483Z,97.70
2018-10-03T05:50:12.608Z,97.70
2018-10-03T05:52:40.756Z,97.70
2018-10-03T05:55:08.888Z,98.00
2018-10-03T05:57:37.006Z,97.90
2018-10-03T06:00:05.228Z,97.80
2018-10-03T06:02:33.335Z,97.80
2018-10-03T06:05:01.802Z,98.10
2018-10-03T06:07:29.932Z,98.60
2018-10-03T06:09:58.068Z,98.20
2018-10-03T06:12:26.236Z,98.00
2018-10-03T06:14:54.492Z,98.50
2018-10-03T06:17:22.708Z,98.20
2018-10-03T06:19:51.298Z,97.80
2018-10-03T06:22:19.548Z,97.40
2018-10-03T06:24:47.684Z,97.40
2018-10-03T06:27:16.089Z,97.10
2018-10-03T06:29:44.453Z,97.00
2018-10-03T06:32:12.589Z,96.60
2018-10-03T06:34:40.703Z,96.30
2018-10-03T06:37:08.859Z,96.30
2018-10-03T06:39:37.204Z,96.00
2018-10-03T06:42:05.343Z,95.90
2018-10-03T06:44:33.530Z,95.60
2018-10-03T06:47:01.743Z,96.10
2018-10-03T06:49:30.167Z,95.80
2018-10-03T06:51:58.284Z,95.90
2018-10-03T06:54:26.425Z,96.50
2018-10-03T06:56:54.551Z,96.20
2018-10-03T06:59:22.785Z,95.40
2018-10-03T07:01:51.000Z,96.50
2018-10-03T07:04:19.535Z,96.50
2018-10-03T07:06:47.692Z,96.50
2018-10-03T07:09:16.168Z,96.10
2018-10-03T07:11:44.636Z,96.10
2018-10-03T07:14:12.850Z,95.30
2018-10-03T07:16:40.968Z,94.90
2018-10-03T07:19:09.087Z,95.90
2018-10-03T07:21:37.764Z,95.50
2018-10-03T07:24:05.964Z,95.00
2018-10-03T07:26:34.205Z,94.30
2018-10-03T07:29:02.360Z,94.90
2018-10-03T07:31:30.471Z,94.80
2018-10-03T07:33:58.706Z,94.60
2018-10-03T07:36:26.834Z,94.80
2018-10-03T07:38:54.972Z,95.10
2018-10-03T07:41:23.100Z,94.90
2018-10-03T07:43:51.303Z,94.20
2018-10-03T07:46:19.820Z,94.30
2018-10-03T07:48:47.944Z,93.70
2018-10-03T07:51:16.192Z,94.00
2018-10-03T07:53:44.393Z,93.30
2018-10-03T07:56:12.758Z,92.70
2018-10-03T07:58:40.924Z,92.00
2018-10-03T08:01:09.047Z,92.40
2018-10-03T08:03:37.536Z,92.20
2018-10-03T08:06:05.659Z,91.20
2018-10-03T08:08:33.772Z,90.80
2018-10-03T08:11:02.012Z,90.40
2018-10-03T08:13:30.418Z,90.00
2018-10-03T08:15:58.550Z,89.20
2018-10-03T08:18:26.677Z,88.60
2018-10-03T08:20:54.941Z,88.00
2018-10-03T08:23:23.073Z,87.60
2018-10-03T08:25:51.206Z,88.40
2018-10-03T08:28:19.328Z,86.20
2018-10-03T08:30:47.553Z,87.90
2018-10-03T08:33:16.344Z,87.10
2018-10-03T08:35:44.390Z,87.30
2018-10-03T08:38:12.532Z,82.50
2018-10-03T08:40:40.765Z,83.40
2018-10-03T08:43:09.233Z,82.70
2018-10-03T08:45:37.426Z,82.40
2018-10-03T08:48:05.476Z,81.10
2018-10-03T08:50:33.664Z,79.60
2018-10-03T08:53:01.798Z,81.50
2018-10-03T08:55:29.913Z,80.20
2018-10-03T08:57:58.098Z,79.80
2018-10-03T09:00:26.605Z,79.80
2018-10-03T09:02:54.792Z,80.70
2018-10-03T09:05:22.924Z,80.20
2018-10-03T09:07:51.205Z,80.10
2018-10-03T09:10:19.872Z,78.90
2018-10-03T09:12:49.152Z,78.00
2018-10-03T09:15:17.291Z,80.20
2018-10-03T09:17:46.102Z,79.80
2018-10-03T09:20:15.384Z,80.60
2018-10-03T09:22:46.407Z,80.50
2018-10-03T09:25:14.994Z,78.10
2018-10-03T09:27:43.658Z,76.60
2018-10-03T09:30:12.213Z,76.60
2018-10-03T09:42:32.144Z,56.70
2018-10-03T09:45:00.297Z,57.00
2018-10-03T09:47:28.727Z,56.90
2018-10-03T09:49:56.955Z,56.80
2018-10-03T09:52:25.087Z,57.50
2018-10-03T09:54:53.227Z,55.90
2018-10-03T09:57:21.346Z,56.80
2018-10-03T09:59:49.448Z,56.10
2018-10-03T10:02:17.619Z,58.70
2018-10-03T10:07:13.686Z,61.80
2018-10-03T10:14:37.812Z,59.80
2018-10-03T10:17:05.964Z,59.80
2018-10-03T10:19:34.879Z,61.10
2018-10-03T10:22:03.384Z,60.50
2018-10-03T10:24:31.517Z,61.40
2018-10-03T10:26:59.657Z,62.30
2018-10-03T10:29:27.777Z,62.90
2018-10-03T10:31:56.379Z,64.50
2018-10-03T10:34:24.483Z,65.60
2018-10-03T10:36:52.685Z,59.60
2018-10-03T10:39:20.809Z,60.00
2018-10-03T10:41:48.937Z,54.00
2018-10-03T10:44:17.549Z,51.00
2018-10-03T10:46:45.654Z,51.90
2018-10-03T10:49:13.784Z,51.70
2018-10-03T10:51:41.931Z,52.80
2018-10-03T10:54:10.063Z,55.40
2018-10-03T10:56:38.187Z,56.50
2018-10-03T10:59:06.379Z,57.30
2018-10-03T11:01:34.832Z,58.70
2018-10-03T11:04:02.952Z,57.60
2018-10-03T11:06:31.088Z,58.60
2018-10-03T11:08:59.185Z,57.40
2018-10-03T11:11:27.313Z,54.20
2018-10-03T11:13:56.024Z,52.30
2018-10-03T11:16:24.128Z,48.10
2018-10-03T11:18:52.280Z,46.40
2018-10-03T11:21:20.560Z,46.10
2018-10-03T11:23:48.921Z,44.30
2018-10-03T11:26:17.228Z,44.00
2018-10-03T11:28:45.369Z,44.50
2018-10-03T11:31:13.509Z,44.90
2018-10-03T11:33:41.647Z,44.70
2018-10-03T11:36:10.097Z,46.10
2018-10-03T11:38:38.535Z,43.40
2018-10-03T11:41:07.160Z,42.70
2018-10-03T11:43:35.296Z,43.40
2018-10-03T11:46:03.727Z,41.30
2018-10-03T11:48:31.848Z,35.60
2018-10-03T11:51:00.011Z,36.40
2018-10-03T11:53:28.145Z,35.90
2018-10-03T11:55:56.408Z,35.20
2018-10-03T11:58:25.074Z,34.60
2018-10-03T12:00:53.268Z,33.40
2018-10-03T12:03:24.848Z,32.30
2018-10-03T12:05:53.162Z,33.80
2018-10-03T12:08:21.688Z,33.30
2018-10-03T12:10:49.861Z,33.10
2018-10-03T12:13:18.666Z,33.70
2018-10-03T12:23:10.503Z,34.20
2018-10-03T12:25:38.676Z,36.00
2018-10-03T12:28:06.802Z,36.70
2018-10-03T12:30:34.924Z,36.50
2018-10-03T12:33:03.060Z,34.80
2018-10-03T12:35:33.572Z,35.20
2018-10-03T12:38:02.192Z,32.10
2018-10-03T12:40:30.860Z,34.30
2018-10-03T12:42:58.988Z,29.90
2018-10-03T12:45:27.646Z,30.00
2018-10-03T12:47:56.144Z,32.00
2018-10-03T12:50:24.283Z,30.50
2018-10-03T12:52:52.726Z,30.20
2018-10-03T12:55:21.054Z,29.30
2018-10-03T12:57:49.597Z,28.50
2018-10-03T13:00:18.633Z,28.60
2018-10-03T13:02:46.782Z,31.20
2018-10-03T13:05:14.882Z,31.80
2018-10-03T13:07:43.020Z,31.70
2018-10-03T13:10:11.131Z,31.40
2018-10-03T13:12:39.270Z,32.10
2018-10-03T13:15:07.611Z,29.30
2018-10-03T13:17:35.782Z,30.00
2018-10-03T13:20:03.904Z,31.90
2018-10-03T13:22:32.043Z,32.00
2018-10-03T13:25:00.205Z,31.90
2018-10-03T13:27:28.322Z,33.20
2018-10-03T13:29:56.569Z,33.80
2018-10-03T13:32:24.811Z,33.50
2018-10-03T13:34:52.952Z,32.30
2018-10-03T13:37:21.067Z,32.00
2018-10-03T13:39:49.470Z,32.70
2018-10-03T13:42:17.660Z,32.90
2018-10-03T13:44:45.881Z,32.40
2018-10-03T13:47:14.228Z,31.30
2018-10-03T13:49:42.360Z,33.50
2018-10-03T13:52:10.595Z,32.50
2018-10-03T13:54:38.784Z,30.90
2018-10-03T13:57:06.954Z,30.30
2018-10-03T13:59:35.087Z,32.30
2018-10-03T14:02:03.207Z,33.40
2018-10-03T14:04:31.349Z,33.10
2018-10-03T14:06:59.496Z,31.80
2018-10-03T14:09:27.635Z,32.30
2018-10-03T14:11:55.760Z,33.00
2018-10-03T14:14:23.900Z,32.90
2018-10-03T14:16:52.049Z,33.90
2018-10-03T14:19:20.243Z,35.10
2018-10-03T14:29:12.708Z,40.30
2018-10-03T14:36:37.360Z,40.70
2018-10-03T14:39:06.911Z,39.90
2018-10-03T14:41:35.056Z,40.70
2018-10-03T14:44:03.187Z,41.20
2018-10-03T14:46:31.478Z,40.50
2018-10-03T14:48:59.587Z,41.50
2018-10-03T14:51:27.727Z,41.60
2018-10-03T14:53:55.849Z,41.40
2018-10-03T14:56:24.027Z,40.30
2018-10-03T14:58:52.188Z,40.90
2018-10-03T15:01:20.255Z,41.10
2018-10-03T15:03:48.793Z,40.00
2018-10-03T15:06:17.714Z,39.90
2018-10-03T15:08:45.876Z,40.00
2018-10-03T15:13:41.984Z,39.80
2018-10-03T15:16:10.448Z,41.00
2018-10-03T15:18:38.582Z,40.50
2018-10-03T15:21:06.765Z,41.40
2018-10-03T15:23:34.928Z,41.60
2018-10-03T15:26:03.158Z,40.90
2018-10-03T15:28:31.704Z,40.90
2018-10-03T15:31:00.374Z,40.20
2018-10-03T15:38:24.276Z,42.10
2018-10-03T15:40:52.972Z,41.80
2018-10-03T15:43:21.140Z,42.40
2018-10-03T15:45:49.584Z,42.60
2018-10-03T15:48:18.092Z,43.20
2018-10-03T15:50:46.185Z,43.80
2018-10-03T15:53:14.325Z,43.90
2018-10-03T15:55:42.468Z,43.50
2018-10-03T15:58:10.668Z,43.90
2018-10-03T16:00:38.809Z,44.50
2018-10-03T16:03:07.033Z,44.20
2018-10-03T16:05:35.200Z,44.60
2018-10-03T16:08:03.366Z,45.20
2018-10-03T16:10:31.621Z,45.10
2018-10-03T16:13:00.242Z,45.90
2018-10-03T16:47:33.229Z,48.00
2018-10-03T16:50:01.962Z,47.90
2018-10-03T16:57:25.916Z,47.70
2018-10-03T17:09:45.953Z,49.90
2018-10-03T17:17:11.463Z,51.60
2018-10-03T17:24:37.518Z,52.00
2018-10-03T17:29:33.584Z,52.40
2018-10-03T17:32:01.819Z,52.70
2018-10-03T17:34:30.400Z,53.10
2018-10-03T17:36:59.079Z,52.80
2018-10-03T17:39:27.788Z,53.60
2018-10-03T17:41:56.433Z,53.90
2018-10-03T17:44:24.771Z,54.40
2018-10-03T17:46:54.728Z,54.60
2018-10-03T17:49:23.210Z,54.40
2018-10-03T17:54:19.790Z,54.60
2018-10-03T17:56:47.967Z,55.10
2018-10-03T18:14:07.975Z,57.40
2018-10-03T18:24:00.137Z,59.10
2018-10-03T18:33:52.708Z,59.50
2018-10-03T18:36:21.045Z,59.10
2018-10-03T19:30:38.684Z,63.00
2018-10-03T19:33:07.001Z,63.50
2018-10-03T19:35:35.157Z,64.90
2018-10-03T19:40:31.160Z,65.90
2018-10-03T19:42:59.442Z,65.30
2018-10-03T19:45:27.574Z,66.10
2018-10-03T19:47:55.765Z,66.70
2018-10-03T19:50:23.859Z,67.30
2018-10-03T19:52:52.082Z,68.00
2018-10-03T19:55:20.809Z,67.60
2018-10-03T19:57:49.352Z,67.80
2018-10-03T20:00:17.523Z,69.10
2018-10-03T20:02:45.673Z,69.20
2018-10-03T20:05:13.903Z,69.10
2018-10-03T20:07:42.077Z,68.90
2018-10-03T20:10:10.208Z,69.40
2018-10-03T20:12:38.349Z,69.90
2018-10-03T20:15:06.710Z,69.90
2018-10-03T20:17:35.310Z,71.10
2018-10-03T20:20:03.547Z,71.30
2018-10-03T20:22:31.934Z,71.20
2018-10-03T20:25:00.145Z,71.30
2018-10-03T20:27:28.600Z,72.00
2018-10-03T20:29:56.727Z,72.30
2018-10-03T20:32:24.839Z,73.10
2018-10-03T20:34:53.157Z,72.60
2018-10-03T20:37:21.313Z,73.40
2018-10-03T20:39:49.565Z,74.60
2018-10-03T20:42:17.691Z,74.10
2018-10-03T20:44:45.872Z,73.90
2018-10-03T20:47:14.442Z,75.10
2018-10-03T20:49:42.916Z,75.80
2018-10-03T20:52:11.600Z,75.20
2018-10-03T20:54:39.792Z,75.50
2018-10-03T20:57:07.965Z,75.90
2018-10-03T20:59:36.200Z,76.50
2018-10-03T21:02:04.625Z,76.90
2018-10-03T21:04:32.747Z,77.30
2018-10-03T21:07:00.966Z,77.40
2018-10-03T21:09:29.096Z,77.60
2018-10-03T21:11:57.255Z,77.80
2018-10-03T21:14:25.429Z,79.30
2018-10-03T21:16:53.586Z,78.20
2018-10-03T21:19:21.739Z,78.50
2018-10-03T21:21:49.858Z,78.80
2018-10-03T21:24:17.988Z,79.00
2018-10-03T21:26:46.136Z,79.40
2018-10-03T21:29:14.333Z,79.60
2018-10-03T21:31:42.740Z,78.70
2018-10-03T21:34:10.855Z,79.20
2018-10-03T21:36:38.992Z,79.80
2018-10-03T21:39:07.836Z,79.70
2018-10-03T21:41:35.976Z,80.40
2018-10-03T21:44:04.127Z,80.00
2018-10-03T21:46:32.276Z,81.20
2018-10-03T21:49:00.408Z,81.10
2018-10-03T21:51:29.007Z,81.30
2018-10-03T21:53:57.181Z,81.30
2018-10-03T21:56:25.315Z,81.50
2018-10-03T21:58:53.496Z,81.80
2018-10-03T22:01:21.668Z,81.50
2018-10-03T22:03:49.807Z,82.50
2018-10-03T22:06:18.273Z,82.20
2018-10-03T22:08:46.417Z,81.80
2018-10-03T22:11:14.660Z,82.60
2018-10-03T22:13:42.821Z,83.30
2018-10-03T22:16:11.047Z,82.50
2018-10-03T22:18:39.177Z,83.20
2018-10-03T22:21:07.353Z,83.00
2018-10-03T22:23:35.980Z,82.80
2018-10-03T22:26:04.394Z,82.60
2018-10-03T22:28:32.532Z,83.10
2018-10-03T22:31:00.651Z,82.50
2018-10-03T22:33:28.813Z,83.50
2018-10-03T22:35:57.014Z,83.10
2018-10-03T22:38:25.733Z,83.30
2018-10-03T22:40:53.854Z,83.50
2018-10-03T22:43:21.972Z,83.50
2018-10-03T22:45:50.117Z,83.60
2018-10-03T22:48:18.256Z,83.80
2018-10-03T22:50:47.147Z,84.00
2018-10-03T22:53:15.351Z,83.90
2018-10-03T22:55:43.492Z,83.70
2018-10-03T22:58:11.631Z,84.10
2018-10-03T23:00:39.752Z,84.10
2018-10-03T23:03:08.563Z,83.80
2018-10-03T23:05:36.736Z,84.60
2018-10-03T23:08:04.885Z,84.20
2018-10-03T23:10:33.136Z,84.60
2018-10-03T23:13:01.275Z,85.10
2018-10-03T23:15:29.450Z,85.30
2018-10-03T23:17:57.617Z,85.70
2018-10-03T23:20:25.775Z,85.50
2018-10-03T23:22:54.281Z,86.00
2018-10-03T23:25:22.780Z,86.10
2018-10-03T23:27:50.915Z,85.80
2018-10-03T23:30:19.499Z,86.10
2018-10-03T23:32:47.649Z,86.00
2018-10-03T23:35:15.814Z,86.50
2018-10-03T23:37:43.946Z,86.40
2018-10-03T23:40:12.426Z,87.40
2018-10-03T23:42:40.557Z,87.20
2018-10-03T23:45:08.699Z,87.70
2018-10-03T23:47:37.115Z,87.50
2018-10-03T23:50:05.312Z,88.00
2018-10-03T23:52:33.614Z,88.30
2018-10-03T23:55:01.773Z,88.90
2018-10-03T23:57:30.702Z,89.70
2018-10-03T23:59:58.889Z,90.00
